Time;durP1;ratioP1;P1;durP2;ratioP2;P2;SDS_P1;SDS_P2;PMS_P1;PMS_P2;Temp;Humidity;BMP_temperature;BMP_pressure;BME280_temperature;BME280_humidity;BME280_pressure;Samples;Min_cycle;Max_cycle;Signal;HPM_P1;HPM_P2
2022/10/03 00:02:00;;;;;;;18.77;5.93;;;;;;;13.27;52.37;102275.78;7394764;19;20014;-60
2022/10/03 00:05:14;;;;;;;19.67;5.88;;;;;;;13.33;52.08;102274.47;7396189;19;20006;-60
2022/10/03 00:08:18;;;;;;;23.20;6.47;;;;;;;13.30;52.35;102278.66;7393814;19;20032;-60
2022/10/03 00:11:04;;;;;;;21.17;6.00;;;;;;;13.35;52.40;102282.38;7388337;19;20005;-60
2022/10/03 00:13:58;;;;;;;21.15;5.95;;;;;;;13.29;52.36;102284.47;7388975;19;20342;-60
2022/10/03 00:16:41;;;;;;;17.40;4.50;;;;;;;13.29;52.34;102285.31;7390828;19;20027;-59
2022/10/03 00:19:32;;;;;;;16.70;3.75;;;;;;;13.26;52.40;102285.13;7389759;19;19994;-59
2022/10/03 00:22:00;;;;;;;20.58;4.65;;;;;;;13.26;52.33;102294.16;7390842;19;20006;-59
2022/10/03 00:24:34;;;;;;;23.73;6.45;;;;;;;13.23;52.25;102292.06;7392012;19;20001;-59
2022/10/03 00:27:17;;;;;;;18.95;5.20;;;;;;;13.25;52.57;102303.50;7391024;19;20352;-59
2022/10/03 00:30:20;;;;;;;21.42;3.92;;;;;;;13.19;52.73;102301.25;7391185;19;19998;-59
2022/10/03 00:33:05;;;;;;;15.98;2.92;;;;;;;13.04;52.98;102305.28;7391267;19;20022;-59
2022/10/03 00:35:49;;;;;;;16.10;3.88;;;;;;;13.05;52.86;102307.69;7389345;19;20482;-59
2022/10/03 00:38:29;;;;;;;21.33;4.13;;;;;;;13.01;52.97;102311.41;7394543;19;20421;-59
2022/10/03 00:41:19;;;;;;;22.30;5.05;;;;;;;13.03;52.93;102293.53;7389696;19;20063;-59
2022/10/03 00:43:45;;;;;;;18.50;5.55;;;;;;;13.09;52.67;102307.84;7389858;19;19999;-59
2022/10/03 00:46:43;;;;;;;19.15;4.18;;;;;;;13.02;52.84;102302.84;7391392;19;20027;-59
2022/10/03 00:49:08;;;;;;;17.40;3.42;;;;;;;13.01;52.96;102311.41;7390512;19;20034;-59
2022/10/03 00:51:44;;;;;;;15.23;2.92;;;;;;;12.99;52.84;102313.66;7390498;19;20355;-59
2022/10/03 00:54:22;;;;;;;17.15;2.75;;;;;;;12.96;52.99;102313.19;7388942;19;20099;-60
2022/10/03 00:57:02;;;;;;;15.68;3.72;;;;;;;12.95;53.01;102311.56;7391134;19;20028;-60
2022/10/03 01:00:12;;;;;;;17.35;3.30;;;;;;;13.03;52.78;102315.44;7387186;19;20036;-59
2022/10/03 01:03:15;;;;;;;14.88;3.20;;;;;;;12.96;53.14;102323.34;7400543;19;20058;-67
2022/10/03 01:05:45;;;;;;;11.05;2.13;;;;;;;12.94;53.00;102326.41;7423450;19;20002;-66
2022/10/03 01:08:22;;;;;;;15.35;2.38;;;;;;;13.09;52.86;102332.53;7420520;19;20118;-66
2022/10/03 01:11:02;;;;;;;12.02;2.25;;;;;;;13.15;52.61;102325.78;7418195;19;19997;-65
2022/10/03 01:13:46;;;;;;;15.75;2.28;;;;;;;13.10;52.82;102320.44;7396498;19;19998;-65
2022/10/03 01:16:36;;;;;;;;;;;;;;;13.07;53.26;102329.31;7398526;19;20467;-65
2022/10/03 01:19:20;;;;;;;18.60;3.03;;;;;;;13.13;52.78;102331.56;7397541;19;19963;-65
2022/10/03 01:22:10;;;;;;;12.85;2.75;;;;;;;13.15;52.78;102334.78;7395387;19;20019;-64
2022/10/03 01:24:46;;;;;;;11.38;2.67;;;;;;;13.13;52.73;102336.25;7396634;19;19991;-65
2022/10/03 01:27:17;;;;;;;16.35;2.90;;;;;;;13.14;52.93;102337.84;7395751;19;20057;-64
2022/10/03 01:30:25;;;;;;;13.52;2.15;;;;;;;13.14;53.13;102343.34;7397117;19;20009;-65
2022/10/03 01:32:36;;;;;;;12.38;2.45;;;;;;;13.19;52.83;102345.91;7394999;19;19999;-65
2022/10/03 01:35:33;;;;;;;13.27;2.35;;;;;;;13.20;53.29;102355.78;7396079;19;20002;-64
2022/10/03 01:37:58;;;;;;;17.02;2.25;;;;;;;13.21;53.16;102359.31;7396118;19;19999;-64
2022/10/03 01:40:50;;;;;;;14.60;2.50;;;;;;;13.18;53.46;102360.78;7398102;19;20051;-64
2022/10/03 01:43:33;;;;;;;16.13;2.83;;;;;;;13.26;53.21;102359.97;7392617;19;20010;-64
2022/10/03 01:46:31;;;;;;;19.92;2.70;;;;;;;13.29;53.04;102362.09;7397736;19;20006;-65
2022/10/03 01:49:37;;;;;;;19.30;2.70;;;;;;;13.28;53.29;102368.69;7394100;19;20001;-65
2022/10/03 01:52:10;;;;;;;16.77;2.78;;;;;;;13.19;53.52;102367.84;7394700;19;19994;-66
2022/10/03 01:54:49;;;;;;;13.27;2.28;;;;;;;13.24;53.40;102359.50;7400423;19;20002;-65
2022/10/03 01:57:24;;;;;;;16.10;2.50;;;;;;;13.35;53.12;102361.91;7397009;19;19999;-63
2022/10/03 01:59:56;;;;;;;15.68;2.75;;;;;;;13.26;53.06;102368.19;7395914;19;20451;-64
2022/10/03 02:02:38;;;;;;;12.48;2.88;;;;;;;13.31;53.01;102379.00;7395247;19;20018;-66
2022/10/03 02:05:33;;;;;;;13.85;2.47;;;;;;;13.33;53.12;102384.19;7397178;19;20003;-66
2022/10/03 02:08:28;;;;;;;16.25;2.42;;;;;;;13.24;53.05;102384.19;7395009;19;20017;-65
2022/10/03 02:11:03;;;;;;;15.00;2.45;;;;;;;13.17;53.28;102380.28;7397276;19;20002;-65
2022/10/03 02:13:42;;;;;;;15.43;2.80;;;;;;;13.12;53.66;102379.28;7392390;19;20006;-65
2022/10/03 02:16:53;;;;;;;14.70;2.65;;;;;;;13.19;53.32;102372.53;7397053;19;20038;-66
2022/10/03 02:19:30;;;;;;;13.63;2.75;;;;;;;13.12;53.75;102375.75;7390981;19;19995;-65
2022/10/03 02:21:59;;;;;;;14.00;2.42;;;;;;;13.07;53.68;102376.72;7395190;19;20003;-66
2022/10/03 02:24:48;;;;;;;11.30;2.42;;;;;;;13.08;53.66;102383.03;7393403;19;20005;-65
2022/10/03 02:27:34;;;;;;;17.58;3.00;;;;;;;13.10;53.88;102378.81;7395108;19;20330;-65
2022/10/03 02:30:23;;;;;;;13.05;2.47;;;;;;;13.03;54.17;102385.91;7393323;19;20030;-65
2022/10/03 02:33:26;;;;;;;14.07;2.45;;;;;;;12.95;54.04;102391.03;7398640;19;20007;-66
2022/10/03 02:36:06;;;;;;;11.98;2.30;;;;;;;12.96;53.90;102381.69;7395313;19;20345;-66
2022/10/03 02:39:09;;;;;;;14.77;2.63;;;;;;;13.02;53.88;102389.78;7395375;19;20027;-66
2022/10/03 02:42:03;;;;;;;13.52;2.60;;;;;;;13.10;53.55;102386.25;7394485;19;20002;-66
2022/10/03 02:45:00;;;;;;;14.80;3.07;;;;;;;13.09;53.67;102390.94;7396132;19;20002;-66
2022/10/03 02:47:44;;;;;;;13.38;2.20;;;;;;;13.20;53.55;102402.38;7395349;19;20007;-65
2022/10/03 02:50:45;;;;;;;13.77;3.07;;;;;;;13.09;53.39;102399.16;7395483;19;20027;-65
2022/10/03 02:53:32;;;;;;;13.07;2.20;;;;;;;13.01;53.51;102404.59;7389360;19;20285;-67
2022/10/03 02:55:57;;;;;;;9.68;2.05;;;;;;;12.94;53.41;102414.09;7394405;19;20020;-65
2022/10/03 02:58:41;;;;;;;12.48;2.33;;;;;;;12.93;53.72;102409.75;7394929;19;20054;-65
2022/10/03 03:01:44;;;;;;;22.67;2.90;;;;;;;12.97;53.54;102412.66;7395620;19;20013;-65
2022/10/03 03:04:47;;;;;;;21.58;3.10;;;;;;;12.99;53.05;102413.13;7392802;19;20027;-65
2022/10/03 03:07:43;;;;;;;12.30;2.30;;;;;;;12.93;53.17;102415.22;7394726;19;19998;-65
2022/10/03 03:10:38;;;;;;;17.92;2.92;;;;;;;12.91;53.05;102400.25;7394550;19;20003;-66
2022/10/03 03:13:30;;;;;;;10.30;2.35;;;;;;;12.98;52.97;102405.25;7388693;19;20020;-66
2022/10/03 03:16:32;;;;;;;12.57;2.40;;;;;;;12.85;53.07;102413.22;7395136;19;20002;-66
2022/10/03 03:19:10;;;;;;;11.57;2.45;;;;;;;12.82;53.29;102410.31;7392146;19;19998;-66
2022/10/03 03:21:44;;;;;;;13.00;2.17;;;;;;;12.73;53.08;102408.34;7392525;19;20009;-66
2022/10/03 03:24:24;;;;;;;11.13;2.08;;;;;;;12.71;53.32;102410.63;7392346;19;20006;-66
2022/10/03 03:27:12;;;;;;;14.48;2.63;;;;;;;12.65;53.33;102414.59;7393042;19;19994;-66
2022/10/03 03:30:15;;;;;;;14.73;2.20;;;;;;;12.58;53.27;102409.59;7393033;19;20010;-66
2022/10/03 03:33:00;;;;;;;10.10;2.30;;;;;;;12.56;53.44;102406.38;7391865;19;19991;-66
2022/10/03 03:35:57;;;;;;;10.93;2.28;;;;;;;12.48;53.54;102409.06;7393138;19;19998;-66
2022/10/03 03:38:38;;;;;;;13.77;2.17;;;;;;;12.49;53.34;102408.75;7390826;19;20574;-66
2022/10/03 03:41:22;;;;;;;16.33;2.67;;;;;;;12.47;53.77;102408.25;7394294;19;20007;-65
2022/10/03 03:44:19;;;;;;;7.20;1.90;;;;;;;12.38;53.81;102416.41;7392309;19;19995;-66
2022/10/03 03:47:24;;;;;;;12.10;2.30;;;;;;;12.45;53.47;102409.69;7394131;19;20032;-65
2022/10/03 03:49:59;;;;;;;15.98;2.33;;;;;;;12.39;53.73;102417.22;7392531;19;20084;-65
2022/10/03 03:53:16;;;;;;;12.80;2.10;;;;;;;12.46;53.48;102416.78;7393722;19;20002;-66
2022/10/03 03:55:47;;;;;;;10.52;2.58;;;;;;;12.36;53.80;102421.41;7391495;19;20016;-65
2022/10/03 03:58:34;;;;;;;11.77;1.92;;;;;;;12.36;53.65;102428.81;7396431;19;20015;-65
2022/10/03 04:01:34;;;;;;;11.73;2.47;;;;;;;12.45;53.30;102424.19;7394443;19;20050;-65
2022/10/03 04:04:26;;;;;;;14.63;2.30;;;;;;;12.55;53.36;102431.31;7386340;19;20006;-65
2022/10/03 04:07:24;;;;;;;14.35;2.08;;;;;;;12.57;53.53;102429.91;7391187;19;20487;-65
2022/10/03 04:10:16;;;;;;;11.90;2.22;;;;;;;12.60;53.23;102429.25;7392016;19;20462;-65
2022/10/03 04:13:06;;;;;;;12.55;2.45;;;;;;;12.64;53.59;102429.44;7391563;19;20032;-66
2022/10/03 04:15:42;;;;;;;14.43;2.40;;;;;;;12.63;53.45;102424.28;7393569;19;19998;-66
2022/10/03 04:21:39;;;;;;;14.40;3.10;;;;;;;12.69;53.85;102432.03;7393135;19;20012;-66
2022/10/03 04:24:18;;;;;;;16.23;2.70;;;;;;;12.76;53.30;102437.88;7390957;19;19994;-66
2022/10/03 04:27:10;;;;;;;11.40;2.40;;;;;;;12.78;53.64;102443.03;7391971;19;19998;-66
2022/10/03 04:30:01;;;;;;;12.93;2.33;;;;;;;12.76;53.30;102443.34;7391700;19;19999;-66
2022/10/03 04:32:34;;;;;;;12.70;2.28;;;;;;;12.75;53.44;102443.66;7389018;19;20026;-67
2022/10/03 04:35:08;;;;;;;17.27;2.92;;;;;;;12.75;53.50;102449.13;7391868;19;20062;-66
2022/10/03 04:37:51;;;;;;;16.13;2.70;;;;;;;12.69;53.67;102440.25;7392021;19;20006;-66
2022/10/03 04:40:48;;;;;;;17.27;2.85;;;;;;;12.70;53.70;102441.06;7391341;19;20462;-66
2022/10/03 04:43:40;;;;;;;14.82;2.50;;;;;;;12.68;53.79;102452.34;7390048;19;20002;-66
2022/10/03 04:46:26;;;;;;;14.00;3.15;;;;;;;12.64;53.74;102459.59;7391890;19;20114;-66
2022/10/03 04:48:57;;;;;;;10.98;2.10;;;;;;;12.58;53.85;102458.09;7388967;19;20324;-66
2022/10/03 04:51:25;;;;;;;11.80;1.98;;;;;;;12.56;54.08;102465.81;7391827;19;20580;-66
2022/10/03 04:53:56;;;;;;;16.02;3.08;;;;;;;12.58;53.79;102458.09;7391461;19;20450;-66
2022/10/03 04:56:40;;;;;;;11.43;2.00;;;;;;;12.56;54.01;102461.13;7391613;19;19999;-67
2022/10/03 04:59:36;;;;;;;13.15;2.47;;;;;;;12.57;53.76;102456.47;7389538;19;19995;-66
2022/10/03 05:02:20;;;;;;;15.55;2.42;;;;;;;12.46;54.24;102461.41;7390780;19;20009;-66
2022/10/03 05:05:10;;;;;;;13.70;2.70;;;;;;;12.56;53.93;102457.59;7390857;19;20006;-66
2022/10/03 05:07:47;;;;;;;11.60;2.63;;;;;;;12.55;53.78;102461.47;7391171;19;20260;-65
2022/10/03 05:10:40;;;;;;;11.10;2.20;;;;;;;12.48;54.27;102461.09;7390369;19;19995;-65
2022/10/03 05:13:15;;;;;;;9.85;2.33;;;;;;;12.48;53.84;102463.84;7389830;19;19995;-66
2022/10/03 05:15:49;;;;;;;12.75;2.35;;;;;;;12.51;54.03;102468.69;7390948;19;19998;-66
2022/10/03 05:18:14;;;;;;;15.00;2.78;;;;;;;12.55;53.89;102469.66;7390152;19;19990;-66
2022/10/03 05:21:01;;;;;;;12.77;2.95;;;;;;;12.57;53.70;102476.47;7390366;19;20015;-66
2022/10/03 05:23:48;;;;;;;16.45;3.00;;;;;;;12.55;53.95;102477.88;7388833;19;20468;-65
2022/10/03 05:26:24;;;;;;;13.60;2.80;;;;;;;12.52;53.94;102482.06;7389770;19;20332;-66
2022/10/03 05:29:01;;;;;;;14.85;2.70;;;;;;;12.53;53.96;102478.19;7388526;19;20015;-65
2022/10/03 05:31:29;;;;;;;12.60;3.03;;;;;;;12.55;54.14;102481.44;7389844;19;20066;-65
2022/10/03 05:34:10;;;;;;;19.58;3.85;;;;;;;12.43;54.24;102483.16;7389838;19;19995;-65
2022/10/03 05:37:12;;;;;;;13.70;2.90;;;;;;;12.46;54.09;102488.81;7390147;19;20066;-65
2022/10/03 05:39:56;;;;;;;15.70;3.30;;;;;;;12.42;54.56;102490.53;7387810;19;19995;-65
2022/10/03 05:42:36;;;;;;;;;;;;;;;12.44;54.40;102485.56;7388883;19;20040;-66
2022/10/03 05:45:20;;;;;;;18.27;3.80;;;;;;;12.49;53.98;102487.34;7390176;19;20503;-65
2022/10/03 05:48:01;;;;;;;15.98;3.38;;;;;;;12.54;53.87;102488.03;7388022;19;19994;-65
2022/10/03 05:50:37;;;;;;;14.60;3.17;;;;;;;12.46;54.26;102496.19;7390132;19;20002;-65
2022/10/03 05:53:14;;;;;;;12.55;3.35;;;;;;;12.53;54.12;102504.78;7386849;19;20432;-66
2022/10/03 05:56:04;;;;;;;12.15;3.22;;;;;;;12.52;54.21;102505.91;7388596;19;19995;-64
2022/10/03 05:58:53;;;;;;;12.00;3.25;;;;;;;12.50;54.28;102508.16;7389396;19;20003;-66
2022/10/03 06:01:18;;;;;;;16.98;3.42;;;;;;;12.45;54.23;102506.34;7397246;19;19998;-65
2022/10/03 06:03:59;;;;;;;16.23;2.97;;;;;;;12.47;54.37;102504.09;7391866;19;20363;-65
2022/10/03 06:06:59;;;;;;;15.15;3.28;;;;;;;12.63;54.12;102506.47;7396257;19;20466;-65
2022/10/03 06:09:43;;;;;;;18.95;3.25;;;;;;;12.63;53.88;102509.19;7395294;19;20005;-65
2022/10/03 06:12:36;;;;;;;13.73;3.08;;;;;;;12.60;54.22;102505.16;7395465;19;20003;-65
2022/10/03 06:15:24;;;;;;;14.30;3.17;;;;;;;12.64;54.04;102508.06;7395619;19;20530;-65
2022/10/03 06:18:21;;;;;;;14.25;2.80;;;;;;;12.71;54.10;102506.50;7396137;19;20770;-65
2022/10/03 06:21:24;;;;;;;14.90;2.70;;;;;;;12.71;54.20;102502.97;7395909;19;20005;-65
2022/10/03 06:23:56;;;;;;;14.60;2.78;;;;;;;12.74;54.08;102507.78;7393382;19;20479;-66
2022/10/03 06:26:54;;;;;;;12.13;2.80;;;;;;;12.78;54.17;102509.59;7395201;19;20462;-66
2022/10/03 06:29:20;;;;;;;13.50;2.80;;;;;;;12.80;53.67;102498.31;7395372;19;20038;-66
2022/10/03 06:32:17;;;;;;;15.13;3.08;;;;;;;12.76;53.94;102513.78;7394654;19;20456;-66
2022/10/03 06:35:14;;;;;;;17.20;3.45;;;;;;;12.73;53.93;102512.47;7395224;19;20010;-66
2022/10/03 06:37:58;;;;;;;13.77;2.88;;;;;;;12.75;53.72;102523.13;7394115;19;20012;-65
2022/10/03 06:40:49;;;;;;;;;;;;;;;12.78;54.19;102517.00;7395483;19;20013;-65
2022/10/03 06:43:33;;;;;;;15.40;2.65;;;;;;;12.89;53.70;102523.88;7398277;19;19951;-65
2022/10/03 06:46:36;;;;;;;20.02;2.58;;;;;;;12.96;53.61;102529.69;7413037;19;20010;-65
2022/10/03 06:49:27;;;;;;;14.55;2.55;;;;;;;12.94;53.75;102526.47;7402055;19;20009;-65
2022/10/03 06:52:19;;;;;;;14.90;3.25;;;;;;;12.92;54.06;102525.16;7400088;19;20026;-65
2022/10/03 06:55:22;;;;;;;16.45;2.22;;;;;;;12.96;54.06;102518.72;7395941;19;20364;-65
2022/10/03 06:57:53;;;;;;;11.10;2.50;;;;;;;13.01;54.01;102522.44;7394811;19;20003;-66
2022/10/03 07:00:42;;;;;;;17.10;2.88;;;;;;;12.97;54.43;102514.06;7395453;19;20005;-66
2022/10/03 07:03:20;;;;;;;14.65;2.88;;;;;;;13.01;54.11;102516.97;7392443;19;20058;-65
2022/10/03 07:06:02;;;;;;;13.77;2.40;;;;;;;13.05;54.07;102521.50;7395695;19;20011;-66
2022/10/03 07:09:02;;;;;;;18.27;2.80;;;;;;;13.12;53.83;102519.09;7394086;19;19998;-66
2022/10/03 07:11:29;;;;;;;14.75;2.55;;;;;;;13.12;53.83;102524.59;7391724;19;19991;-66
2022/10/03 07:14:22;;;;;;;14.52;2.40;;;;;;;13.09;54.06;102527.16;7394203;19;20066;-66
2022/10/03 07:17:21;;;;;;;12.55;2.90;;;;;;;13.01;54.62;102530.66;7394671;19;20342;-67
2022/10/03 07:20:02;;;;;;;12.93;1.98;;;;;;;13.11;53.94;102530.41;7393353;19;20026;-66
2022/10/03 07:22:42;;;;;;;15.48;2.65;;;;;;;13.13;54.07;102544.59;7391911;19;20027;-66
2022/10/03 07:25:29;;;;;;;14.32;2.35;;;;;;;13.20;53.84;102542.22;7393901;19;20015;-66
2022/10/03 07:28:01;;;;;;;16.10;2.85;;;;;;;13.29;53.54;102547.72;7392574;19;20478;-66
2022/10/03 07:30:53;;;;;;;12.93;2.58;;;;;;;13.42;53.56;102546.78;7393857;19;20066;-66
2022/10/03 07:33:34;;;;;;;16.65;3.35;;;;;;;13.42;53.63;102555.03;7392655;19;20006;-66
2022/10/03 07:39:36;;;;;;;15.82;3.30;;;;;;;13.71;52.87;102559.16;7393148;19;20003;-65
2022/10/03 07:42:26;;;;;;;16.52;3.20;;;;;;;13.80;53.02;102551.72;7392387;19;20483;-66
2022/10/03 07:45:18;;;;;;;18.70;3.90;;;;;;;13.89;52.71;102559.97;7393340;19;19999;-66
2022/10/03 07:48:06;;;;;;;18.35;3.70;;;;;;;13.86;52.84;102561.44;7391152;19;20463;-66
2022/10/03 07:50:50;;;;;;;20.08;4.20;;;;;;;13.88;52.67;102558.38;7391004;19;19991;-66
2022/10/03 07:53:38;;;;;;;14.85;3.58;;;;;;;13.91;52.79;102557.75;7390517;19;20508;-66
2022/10/03 07:56:49;;;;;;;21.17;4.65;;;;;;;13.92;52.89;102562.09;7393242;19;20015;-66
2022/10/03 07:59:52;;;;;;;15.35;4.82;;;;;;;13.94;52.74;102567.25;7391047;19;20006;-67
2022/10/03 08:02:33;;;;;;;16.23;4.45;;;;;;;13.94;52.97;102570.00;7391179;19;19994;-67
2022/10/03 08:05:23;;;;;;;18.40;4.80;;;;;;;13.96;52.75;102568.56;7392919;19;20006;-66
2022/10/03 08:08:34;;;;;;;21.20;4.10;;;;;;;13.96;52.62;102571.31;7392708;19;20007;-66
2022/10/03 08:11:10;;;;;;;18.05;4.25;;;;;;;13.99;52.74;102573.38;7392636;19;20007;-65
2022/10/03 08:13:48;;;;;;;18.50;3.92;;;;;;;14.01;52.39;102568.41;7391485;19;19998;-65
2022/10/03 08:16:25;;;;;;;20.05;4.57;;;;;;;14.16;52.19;102569.88;7392346;19;20003;-65
2022/10/03 08:19:09;;;;;;;16.50;3.28;;;;;;;14.19;52.54;102579.38;7391949;19;20005;-65
2022/10/03 08:22:04;;;;;;;17.30;3.58;;;;;;;14.24;52.28;102576.47;7391492;19;20054;-66
2022/10/03 08:24:53;;;;;;;17.52;3.38;;;;;;;14.31;52.05;102585.06;7390400;19;20006;-66
2022/10/03 08:28:19;;;;;;;14.07;2.92;;;;;;;14.26;52.12;102582.44;7391316;19;19986;-65
2022/10/03 08:31:15;;;;;;;17.05;3.38;;;;;;;14.31;51.99;102587.81;7387511;19;20602;-66
2022/10/03 08:34:03;;;;;;;21.00;3.45;;;;;;;14.38;51.95;102585.38;7389676;19;20002;-65
2022/10/03 08:36:51;;;;;;;14.55;3.08;;;;;;;14.43;51.77;102593.44;7392481;19;20351;-66
2022/10/03 08:39:17;;;;;;;13.23;3.03;;;;;;;14.52;51.69;102600.88;7389223;19;20396;-66
2022/10/03 08:41:51;;;;;;;19.02;2.75;;;;;;;14.57;51.59;102595.19;7388793;19;20459;-66
2022/10/03 08:44:45;;;;;;;11.40;2.30;;;;;;;14.53;51.69;102600.53;7388094;19;20070;-66
2022/10/03 08:47:48;;;;;;;13.83;2.40;;;;;;;14.63;51.43;102599.41;7392146;19;19999;-66
2022/10/03 08:50:29;;;;;;;16.30;3.00;;;;;;;14.69;51.20;102597.28;7390112;19;20299;-66
2022/10/03 08:53:19;;;;;;;14.02;2.75;;;;;;;14.66;51.54;102606.97;7388954;19;20471;-67
2022/10/03 08:56:06;;;;;;;11.35;2.38;;;;;;;14.70;51.16;102598.91;7388612;19;20006;-67
2022/10/03 08:58:56;;;;;;;11.98;2.28;;;;;;;14.71;51.27;102606.84;7390845;19;20009;-67
2022/10/03 09:01:34;;;;;;;12.85;2.22;;;;;;;14.75;51.04;102615.25;7391223;19;20003;-67
2022/10/03 09:04:17;;;;;;;13.75;2.53;;;;;;;14.75;51.06;102613.31;7389599;19;20038;-67
2022/10/03 09:06:52;;;;;;;12.05;2.10;;;;;;;14.80;50.78;102610.38;7391584;19;20007;-67
2022/10/03 09:09:20;;;;;;;19.17;2.45;;;;;;;14.88;50.94;102624.44;7390777;19;20265;-67
2022/10/03 09:12:13;;;;;;;14.85;2.40;;;;;;;14.92;51.05;102619.91;7389937;19;20304;-66
2022/10/03 09:15:03;;;;;;;17.38;2.80;;;;;;;14.99;50.98;102621.00;7391409;19;20469;-66
2022/10/03 09:18:04;;;;;;;15.82;2.90;;;;;;;15.08;50.65;102617.44;7390520;19;20013;-66
2022/10/03 09:21:05;;;;;;;16.45;3.33;;;;;;;15.04;50.71;102620.03;7389987;19;20027;-66
2022/10/03 09:23:31;;;;;;;15.40;3.28;;;;;;;15.12;50.65;102621.94;7388788;19;20003;-67
2022/10/03 09:26:08;;;;;;;15.75;3.58;;;;;;;15.17;50.52;102623.72;7390144;19;20006;-66
2022/10/03 09:28:58;;;;;;;16.05;3.40;;;;;;;15.20;50.39;102616.75;7389397;19;19999;-66
2022/10/03 09:31:45;;;;;;;13.45;3.33;;;;;;;15.26;50.17;102609.94;7389033;19;20593;-65
2022/10/03 09:34:10;;;;;;;15.63;2.70;;;;;;;15.29;50.39;102620.28;7390970;19;20346;-68
2022/10/03 09:36:54;;;;;;;17.50;2.60;;;;;;;15.35;50.46;102614.25;7397672;19;20010;-65
2022/10/03 09:39:32;;;;;;;13.43;2.50;;;;;;;15.22;50.54;102614.50;7397320;19;20026;-66
2022/10/03 09:42:25;;;;;;;9.32;2.50;;;;;;;15.56;49.83;102613.50;7394136;19;20013;-66
2022/10/03 09:45:07;;;;;;;15.80;2.97;;;;;;;15.58;50.03;102618.69;7397559;19;20027;-65
2022/10/03 09:47:51;;;;;;;16.15;2.60;;;;;;;15.68;49.75;102610.91;7395353;19;20054;-67
2022/10/03 09:50:35;;;;;;;;;;;;;;;15.87;49.23;102615.94;7397782;19;20090;-66
2022/10/03 09:53:33;;;;;;;15.73;2.70;;;;;;;15.68;49.63;102605.41;7394529;19;19918;-67
2022/10/03 09:56:37;;;;;;;12.70;2.17;;;;;;;15.56;48.65;102608.00;7397327;19;20025;-67
2022/10/03 09:59:43;;;;;;;9.40;1.52;;;;;;;15.56;48.83;102610.75;7394494;19;20003;-66
2022/10/03 10:02:23;;;;;;;13.05;2.10;;;;;;;15.58;48.76;102605.75;7395874;19;20016;-66
2022/10/03 10:05:15;;;;;;;11.93;1.77;;;;;;;15.43;48.30;102609.88;7391694;19;20035;-68
2022/10/03 10:07:55;;;;;;;7.80;1.40;;;;;;;15.46;47.86;102614.69;7396903;19;20013;-67
2022/10/03 10:10:39;;;;;;;9.38;1.90;;;;;;;15.41;47.77;102611.31;7396485;19;20006;-66
2022/10/03 10:13:21;;;;;;;9.45;1.90;;;;;;;15.49;47.26;102607.72;7396263;19;20460;-67
2022/10/03 10:16:18;;;;;;;9.02;1.45;;;;;;;15.75;46.38;102613.13;7396377;19;20001;-66
2022/10/03 10:19:05;;;;;;;7.97;1.40;;;;;;;15.80;45.53;102612.09;7395867;19;20003;-66
2022/10/03 10:21:37;;;;;;;9.35;1.50;;;;;;;15.85;46.27;102612.75;7396235;19;20113;-67
2022/10/03 10:24:45;;;;;;;8.85;2.35;;;;;;;15.84;45.88;102613.06;7392413;19;20003;-67
2022/10/03 10:27:25;;;;;;;10.95;2.00;;;;;;;15.91;46.18;102607.81;7396445;19;19994;-66
2022/10/03 10:30:09;;;;;;;7.72;1.50;;;;;;;15.95;45.97;102610.72;7394743;19;20645;-66
2022/10/03 10:32:53;;;;;;;;;;;;;;;16.00;45.28;102603.09;7395900;19;19999;-66
2022/10/03 10:35:50;;;;;;;12.15;1.95;;;;;;;16.06;45.99;102601.72;7395517;19;19911;-66
2022/10/03 10:38:42;;;;;;;11.75;1.60;;;;;;;15.89;45.64;102599.91;7395360;19;19999;-66
2022/10/03 10:41:29;;;;;;;8.32;1.42;;;;;;;15.91;45.87;102597.63;7395677;19;20001;-66
2022/10/03 10:44:13;;;;;;;12.63;1.70;;;;;;;16.11;46.06;102597.97;7393912;19;20006;-66
2022/10/03 10:47:23;;;;;;;11.73;1.80;;;;;;;16.26;45.64;102586.31;7390654;19;20051;-67
2022/10/03 10:50:16;;;;;;;8.90;1.83;;;;;;;16.35;45.38;102585.44;7393304;19;20010;-68
2022/10/03 10:53:19;;;;;;;7.88;1.60;;;;;;;16.49;45.30;102583.25;7393820;19;19999;-67
2022/10/03 10:56:13;;;;;;;10.38;1.77;;;;;;;16.60;45.06;102583.63;7395265;19;19999;-66
2022/10/03 10:58:42;;;;;;;10.27;1.80;;;;;;;16.42;45.82;102589.28;7393291;19;20002;-67
2022/10/03 11:01:16;;;;;;;9.00;1.80;;;;;;;16.22;46.02;102596.41;7393280;19;20005;-67
2022/10/03 11:03:57;;;;;;;12.20;1.98;;;;;;;16.11;46.13;102597.97;7391111;19;20078;-67
2022/10/03 11:06:47;;;;;;;13.70;1.88;;;;;;;16.06;46.24;102598.16;7395357;19;19994;-67
2022/10/03 11:09:43;;;;;;;10.80;1.80;;;;;;;16.06;46.33;102598.16;7394164;19;19999;-67
2022/10/03 11:12:31;;;;;;;4.93;1.08;;;;;;;16.13;45.73;102592.13;7391849;19;19995;-66
2022/10/03 11:15:35;;;;;;;8.98;1.20;;;;;;;16.36;45.59;102578.81;7394817;19;19998;-67
2022/10/03 11:18:39;;;;;;;8.20;1.73;;;;;;;16.47;45.37;102574.53;7391184;19;20002;-68
2022/10/03 11:21:33;;;;;;;5.97;1.23;;;;;;;16.67;44.52;102583.06;7393465;19;19998;-67
2022/10/03 11:24:12;;;;;;;6.97;1.38;;;;;;;16.95;43.73;102581.31;7390980;19;20006;-67
2022/10/03 11:26:56;;;;;;;5.55;1.20;;;;;;;16.87;43.87;102589.66;7394248;19;19999;-67
2022/10/03 11:29:41;;;;;;;;;;;;;;;16.82;42.87;102566.69;7394090;19;19998;-67
2022/10/03 11:32:08;;;;;;;9.55;1.85;;;;;;;17.02;43.75;102573.25;7391439;19;19910;-67
2022/10/03 11:34:53;;;;;;;10.23;1.58;;;;;;;17.31;43.73;102579.75;7394129;19;19991;-67
2022/10/03 11:37:37;;;;;;;10.73;1.90;;;;;;;17.38;42.74;102571.69;7394235;19;20084;-67
2022/10/03 11:40:06;;;;;;;10.15;1.80;;;;;;;17.26;43.46;102570.88;7393146;19;20001;-67
2022/10/03 11:42:53;;;;;;;7.05;1.33;;;;;;;17.14;43.39;102575.22;7391130;19;19994;-67
2022/10/03 11:45:33;;;;;;;8.52;1.42;;;;;;;17.02;42.96;102577.97;7392004;19;20001;-66
2022/10/03 11:48:30;;;;;;;4.85;1.00;;;;;;;16.87;42.93;102573.94;7396137;19;20009;-66
2022/10/03 11:51:06;;;;;;;6.70;1.20;;;;;;;16.89;43.17;102577.16;7391929;19;19990;-67
2022/10/03 11:53:57;;;;;;;6.50;1.23;;;;;;;16.94;42.50;102576.94;7389468;19;19991;-66
2022/10/03 11:56:26;;;;;;;8.18;1.20;;;;;;;16.90;43.01;102583.47;7392373;19;20083;-66
2022/10/03 11:59:07;;;;;;;7.88;1.73;;;;;;;16.93;43.13;102583.59;7390804;19;20451;-66
2022/10/03 12:02:02;;;;;;;7.25;1.70;;;;;;;16.87;43.47;102576.69;7392971;19;20331;-66
2022/10/03 12:04:48;;;;;;;8.48;1.38;;;;;;;16.76;43.85;102570.00;7388651;19;20018;-67
2022/10/03 12:10:43;;;;;;;5.40;1.30;;;;;;;16.75;43.95;102563.69;7392779;19;20007;-63
2022/10/03 12:13:50;;;;;;;8.85;1.75;;;;;;;16.90;43.22;102570.50;7391117;19;20017;-63
2022/10/03 12:16:30;;;;;;;5.57;1.50;;;;;;;16.77;43.36;102577.13;7390536;19;20106;-63
2022/10/03 12:19:29;;;;;;;8.60;1.48;;;;;;;16.72;43.44;102574.56;7392122;19;20002;-62
2022/10/03 12:22:06;;;;;;;7.00;1.30;;;;;;;16.69;43.96;102575.28;7391766;19;19999;-61
2022/10/03 12:24:40;;;;;;;6.90;1.30;;;;;;;16.59;43.96;102571.78;7390323;19;20495;-64
2022/10/03 12:27:29;;;;;;;4.88;1.30;;;;;;;16.56;44.23;102572.47;7392137;19;20007;-63
2022/10/03 12:29:59;;;;;;;4.43;1.30;;;;;;;16.41;44.95;102586.84;7391177;19;20489;-61
2022/10/03 12:32:48;;;;;;;5.55;1.42;;;;;;;16.47;44.92;102580.03;7391228;19;20001;-61
2022/10/03 12:35:41;;;;;;;8.73;1.73;;;;;;;16.50;44.71;102584.03;7392081;19;19998;-60
2022/10/03 12:38:32;;;;;;;8.20;1.20;;;;;;;16.57;44.63;102578.81;7390755;19;20002;-61
2022/10/03 12:41:13;;;;;;;12.68;1.73;;;;;;;16.45;44.47;102582.25;7391498;19;20020;-62
2022/10/03 12:43:49;;;;;;;8.13;1.20;;;;;;;16.42;44.68;102578.25;7390103;19;20066;-62
2022/10/03 12:46:29;;;;;;;8.90;1.52;;;;;;;16.49;44.87;102569.47;7389613;19;20455;-62
2022/10/03 12:49:14;;;;;;;8.55;1.45;;;;;;;16.52;44.79;102577.06;7390911;19;20002;-63
2022/10/03 12:51:57;;;;;;;7.10;1.67;;;;;;;16.49;45.30;102579.69;7391270;19;20007;-62
2022/10/03 12:54:44;;;;;;;8.85;1.88;;;;;;;16.57;45.17;102579.59;7391840;19;20027;-61
2022/10/03 12:57:30;;;;;;;8.98;1.63;;;;;;;16.44;45.01;102580.69;7391525;19;20011;-62